createdAt,value
2017-11-24T00:00:14.893Z,3.23
2017-11-24T00:02:42.705Z,3.00
2017-11-24T00:05:10.144Z,3.80
2017-11-24T00:07:37.563Z,2.80
2017-11-24T00:10:04.969Z,2.83
2017-11-24T00:12:32.419Z,3.40
2017-11-24T00:14:59.826Z,3.50
2017-11-24T00:17:27.636Z,2.93
2017-11-24T00:19:55.169Z,3.33
2017-11-24T00:22:22.581Z,3.13
2017-11-24T00:24:50.000Z,3.07
2017-11-24T00:27:17.421Z,3.07
2017-11-24T00:29:45.226Z,3.10
2017-11-24T00:32:12.668Z,3.30
2017-11-24T00:34:40.077Z,3.50
2017-11-24T00:37:07.543Z,3.40
2017-11-24T00:39:34.953Z,2.50
2017-11-24T00:42:02.370Z,3.10
2017-11-24T00:44:29.791Z,3.33
2017-11-24T00:46:57.609Z,2.90
2017-11-24T00:49:25.030Z,3.43
2017-11-24T00:51:52.847Z,3.73
2017-11-24T00:54:20.397Z,3.10
2017-11-24T00:56:47.837Z,3.00
2017-11-24T00:59:15.254Z,3.23
2017-11-24T01:01:43.079Z,3.37
2017-11-24T01:04:10.500Z,2.93
2017-11-24T01:06:37.914Z,3.17
2017-11-24T01:09:05.746Z,3.53
2017-11-24T01:11:33.166Z,3.10
2017-11-24T01:14:00.593Z,3.60
2017-11-24T01:16:28.402Z,3.50
2017-11-24T01:18:55.825Z,3.00
2017-11-24T01:21:23.512Z,3.77
2017-11-24T01:23:50.941Z,3.30
2017-11-24T01:26:18.757Z,3.00
2017-11-24T01:28:46.201Z,3.30
2017-11-24T01:31:13.627Z,3.30
2017-11-24T01:33:41.045Z,3.60
2017-11-24T01:36:08.481Z,3.67
2017-11-24T01:38:35.910Z,4.17
2017-11-24T01:41:03.326Z,3.17
2017-11-24T01:43:31.257Z,3.33
2017-11-24T01:45:58.679Z,3.07
2017-11-24T01:48:26.094Z,3.23
2017-11-24T01:50:53.941Z,3.30
2017-11-24T01:53:21.356Z,3.07
2017-11-24T01:55:48.776Z,4.37
2017-11-24T01:58:16.610Z,4.00
2017-11-24T02:00:44.039Z,2.97
2017-11-24T02:03:11.457Z,2.80
2017-11-24T02:05:38.897Z,3.13
2017-11-24T02:08:07.393Z,3.33
2017-11-24T02:10:35.205Z,2.90
2017-11-24T02:13:02.636Z,3.30
2017-11-24T02:15:30.064Z,3.50
2017-11-24T02:17:57.489Z,3.97
2017-11-24T02:20:24.944Z,3.40
2017-11-24T02:22:52.357Z,3.73
2017-11-24T02:25:19.784Z,4.80
2017-11-24T02:27:47.591Z,3.27
2017-11-24T02:30:15.026Z,3.67
2017-11-24T02:32:42.476Z,3.70
2017-11-24T02:35:09.898Z,3.73
2017-11-24T02:37:37.712Z,3.00
2017-11-24T02:40:05.154Z,3.90
2017-11-24T02:42:32.572Z,3.73
2017-11-24T02:45:00.617Z,3.90
2017-11-24T02:47:28.071Z,3.23
2017-11-24T02:49:55.500Z,3.70
2017-11-24T02:52:22.917Z,3.90
2017-11-24T02:54:50.362Z,3.50
2017-11-24T02:57:17.783Z,3.73
2017-11-24T02:59:45.212Z,3.80
2017-11-24T03:02:12.653Z,4.30
2017-11-24T03:04:40.065Z,3.87
2017-11-24T03:07:07.877Z,3.90
2017-11-24T03:09:35.313Z,3.90
2017-11-24T03:12:02.735Z,3.80
2017-11-24T03:14:30.550Z,4.00
2017-11-24T03:16:57.994Z,4.07
2017-11-24T03:19:25.432Z,4.07
2017-11-24T03:21:53.237Z,5.33
2017-11-24T03:24:20.856Z,5.40
2017-11-24T03:26:48.276Z,4.63
2017-11-24T03:29:15.702Z,4.70
2017-11-24T03:31:43.144Z,4.40
2017-11-24T03:34:10.573Z,4.60
2017-11-24T03:36:37.998Z,4.70
2017-11-24T03:39:05.450Z,4.00
2017-11-24T03:41:32.866Z,4.73
2017-11-24T03:44:00.292Z,4.70
2017-11-24T03:46:27.733Z,4.47
2017-11-24T03:48:55.558Z,4.87
2017-11-24T03:51:22.994Z,5.37
2017-11-24T03:53:50.514Z,5.10
2017-11-24T03:56:17.935Z,4.60
2017-11-24T03:58:45.362Z,4.30
2017-11-24T04:01:13.116Z,4.00
2017-11-24T04:03:40.536Z,4.10
2017-11-24T04:06:07.965Z,4.00
2017-11-24T04:08:35.403Z,4.17
2017-11-24T04:11:02.833Z,4.80
2017-11-24T04:13:30.261Z,4.43
2017-11-24T04:15:58.049Z,4.40
2017-11-24T04:18:25.473Z,3.60
2017-11-24T04:20:53.285Z,4.33
2017-11-24T04:23:20.831Z,4.13
2017-11-24T04:25:48.258Z,4.17
2017-11-24T04:28:15.668Z,3.83
2017-11-24T04:30:43.296Z,4.23
2017-11-24T04:33:10.727Z,5.00
2017-11-24T04:35:38.134Z,5.03
2017-11-24T04:38:05.574Z,4.40
2017-11-24T04:40:32.994Z,4.33
2017-11-24T04:43:00.413Z,5.13
2017-11-24T04:45:27.865Z,4.63
2017-11-24T04:47:55.286Z,5.00
2017-11-24T04:50:22.707Z,4.40
2017-11-24T04:52:50.153Z,4.60
2017-11-24T04:55:17.592Z,5.07
2017-11-24T04:57:44.989Z,4.40
2017-11-24T05:00:12.425Z,3.50
2017-11-24T05:02:39.845Z,4.30
2017-11-24T05:05:07.266Z,4.40
2017-11-24T05:07:34.718Z,4.00
2017-11-24T05:10:02.141Z,4.10
2017-11-24T05:12:29.566Z,3.90
2017-11-24T05:14:56.990Z,3.83
2017-11-24T05:17:24.425Z,4.00
2017-11-24T05:19:51.858Z,3.90
2017-11-24T05:22:19.283Z,4.27
2017-11-24T05:24:46.694Z,3.93
2017-11-24T05:27:14.143Z,4.43
2017-11-24T05:29:41.565Z,4.03
2017-11-24T05:32:09.375Z,4.17
2017-11-24T05:34:36.802Z,4.17
2017-11-24T05:37:04.218Z,4.30
2017-11-24T05:39:31.640Z,4.43
2017-11-24T05:41:59.096Z,4.80
2017-11-24T05:44:26.527Z,4.60
2017-11-24T05:46:53.949Z,4.67
2017-11-24T05:49:22.068Z,4.30
2017-11-24T05:51:49.485Z,4.70
2017-11-24T05:54:16.910Z,3.83
2017-11-24T05:56:45.173Z,5.07
2017-11-24T05:59:12.581Z,4.40
2017-11-24T06:01:39.996Z,6.10
2017-11-24T06:04:07.425Z,4.57
2017-11-24T06:06:34.858Z,5.83
2017-11-24T06:09:02.278Z,5.87
2017-11-24T06:11:30.095Z,5.17
2017-11-24T06:13:57.546Z,4.30
2017-11-24T06:16:25.038Z,4.00
2017-11-24T06:18:52.448Z,4.50
2017-11-24T06:21:19.893Z,4.33
2017-11-24T06:23:47.309Z,4.90
2017-11-24T06:26:15.129Z,3.90
2017-11-24T06:28:42.653Z,4.97
2017-11-24T06:31:10.071Z,4.83
2017-11-24T06:33:37.490Z,5.10
2017-11-24T06:36:04.923Z,4.47
2017-11-24T06:38:32.357Z,5.23
2017-11-24T06:41:00.168Z,4.43
2017-11-24T06:43:27.605Z,5.03
2017-11-24T06:45:55.024Z,5.03
2017-11-24T06:48:22.836Z,5.53
2017-11-24T06:50:50.293Z,4.77
2017-11-24T06:53:17.714Z,5.40
2017-11-24T06:55:45.145Z,5.57
2017-11-24T06:58:14.031Z,4.33
2017-11-24T07:00:41.857Z,5.50
2017-11-24T07:03:09.275Z,5.20
2017-11-24T07:05:36.816Z,4.63
2017-11-24T07:08:04.624Z,4.90
2017-11-24T07:10:32.049Z,4.90
2017-11-24T07:12:59.461Z,5.90
2017-11-24T07:15:26.894Z,5.53
2017-11-24T07:17:54.338Z,4.97
2017-11-24T07:20:21.757Z,6.53
2017-11-24T07:22:49.576Z,6.03
2017-11-24T07:25:17.514Z,5.53
2017-11-24T07:27:44.944Z,5.73
2017-11-24T07:30:12.371Z,5.40
2017-11-24T07:32:39.810Z,6.13
2017-11-24T07:35:07.237Z,6.10
2017-11-24T07:37:34.649Z,6.40
2017-11-24T07:40:02.501Z,5.90
2017-11-24T07:42:29.918Z,6.43
2017-11-24T07:44:57.340Z,5.93
2017-11-24T07:47:25.331Z,7.30
2017-11-24T07:49:52.747Z,8.10
2017-11-24T07:52:20.565Z,7.07
2017-11-24T07:54:48.208Z,8.90
2017-11-24T07:57:15.629Z,8.17
2017-11-24T07:59:43.448Z,8.83
2017-11-24T08:02:11.140Z,8.07
2017-11-24T08:04:38.545Z,9.80
2017-11-24T08:07:05.957Z,8.43
2017-11-24T08:09:33.792Z,8.03
2017-11-24T08:12:01.211Z,8.53
2017-11-24T08:14:28.631Z,7.60
2017-11-24T08:16:56.461Z,7.90
2017-11-24T08:19:23.889Z,7.30
2017-11-24T08:21:51.311Z,7.80
2017-11-24T08:24:19.138Z,7.30
2017-11-24T08:26:46.557Z,8.00
2017-11-24T08:29:13.981Z,9.40
2017-11-24T08:31:41.797Z,9.33
2017-11-24T08:34:09.224Z,9.80
2017-11-24T08:36:36.699Z,10.13
2017-11-24T08:39:04.109Z,8.70
2017-11-24T08:41:31.920Z,8.60
2017-11-24T08:43:59.350Z,8.50
2017-11-24T08:46:32.419Z,9.80
2017-11-24T08:49:05.452Z,9.53
2017-11-24T08:51:32.877Z,8.97
2017-11-24T08:54:00.302Z,10.80
2017-11-24T08:56:28.153Z,8.83
2017-11-24T08:58:55.565Z,7.60
2017-11-24T09:01:22.995Z,8.10
2017-11-24T09:03:50.434Z,8.13
2017-11-24T09:06:17.858Z,7.30
2017-11-24T09:08:45.281Z,6.97
2017-11-24T09:11:12.805Z,7.47
2017-11-24T09:13:40.237Z,7.60
2017-11-24T09:16:07.655Z,6.60
2017-11-24T09:18:35.149Z,6.10
2017-11-24T09:21:02.971Z,5.83
2017-11-24T09:23:30.390Z,5.93
2017-11-24T09:25:57.819Z,5.70
2017-11-24T09:28:25.238Z,6.10
2017-11-24T09:30:52.660Z,5.73
2017-11-24T09:33:20.366Z,6.13
2017-11-24T09:35:47.786Z,5.60
2017-11-24T09:38:15.206Z,6.10
2017-11-24T09:40:43.048Z,5.93
2017-11-24T09:43:10.472Z,6.77
2017-11-24T09:45:37.894Z,5.33
2017-11-24T09:48:05.318Z,4.80
2017-11-24T09:50:32.750Z,5.10
2017-11-24T09:53:00.168Z,4.50
2017-11-24T09:55:27.612Z,4.30
2017-11-24T09:57:55.033Z,4.93
2017-11-24T10:00:22.451Z,4.50
2017-11-24T10:02:50.209Z,3.80
2017-11-24T10:05:17.634Z,4.57
2017-11-24T10:07:45.445Z,3.70
2017-11-24T10:10:13.192Z,3.70
2017-11-24T10:12:41.131Z,3.67
2017-11-24T10:15:08.922Z,3.50
2017-11-24T10:17:37.642Z,4.60
2017-11-24T10:20:05.076Z,3.90
2017-11-24T10:22:39.094Z,3.20
2017-11-24T10:25:06.614Z,3.87
2017-11-24T10:30:07.845Z,3.40
2017-11-24T10:32:35.960Z,2.90
2017-11-24T10:35:03.370Z,3.23
2017-11-24T10:37:31.184Z,3.17
2017-11-24T10:39:58.597Z,3.27
2017-11-24T10:42:26.015Z,3.40
2017-11-24T10:44:53.734Z,3.17
2017-11-24T10:47:21.157Z,3.17
2017-11-24T10:49:48.973Z,3.00
2017-11-24T10:52:16.418Z,3.43
2017-11-24T10:54:43.834Z,3.00
2017-11-24T10:57:11.282Z,2.90
2017-11-24T10:59:38.717Z,3.00
2017-11-24T11:02:06.174Z,4.50
2017-11-24T11:04:33.596Z,2.97
2017-11-24T11:07:01.040Z,3.40
2017-11-24T11:09:28.498Z,4.40
2017-11-24T11:11:55.918Z,3.37
2017-11-24T11:14:23.729Z,4.50
2017-11-24T11:16:51.201Z,3.50
2017-11-24T11:19:19.049Z,3.70
2017-11-24T11:21:46.465Z,4.00
2017-11-24T11:24:14.293Z,4.20
2017-11-24T11:26:41.708Z,3.83
2017-11-24T11:29:09.126Z,4.80
2017-11-24T11:31:36.955Z,4.30
2017-11-24T11:34:04.357Z,4.10
2017-11-24T11:36:31.805Z,3.97
2017-11-24T11:38:59.228Z,3.30
2017-11-24T11:41:26.640Z,4.10
2017-11-24T11:43:54.065Z,4.33
2017-11-24T11:46:21.859Z,4.20
2017-11-24T11:48:49.298Z,3.70
2017-11-24T11:51:16.717Z,3.77
2017-11-24T11:53:44.314Z,4.10
2017-11-24T11:56:11.735Z,3.50
2017-11-24T11:58:40.062Z,3.70
2017-11-24T12:01:07.504Z,3.30
2017-11-24T12:03:34.920Z,3.43
2017-11-24T12:06:02.732Z,4.10
2017-11-24T12:08:30.176Z,3.37
2017-11-24T12:10:57.592Z,3.63
2017-11-24T12:13:25.402Z,3.03
2017-11-24T12:15:52.847Z,3.50
2017-11-24T12:18:20.260Z,4.23
2017-11-24T12:20:48.082Z,8.33
2017-11-24T12:23:15.826Z,3.10
2017-11-24T12:25:43.255Z,3.90
2017-11-24T12:28:11.075Z,3.30
2017-11-24T12:30:38.522Z,3.33
2017-11-24T12:33:06.987Z,3.50
2017-11-24T12:35:34.408Z,3.43
2017-11-24T12:38:01.821Z,3.60
2017-11-24T12:40:29.601Z,3.60
2017-11-24T12:42:57.026Z,3.70
2017-11-24T12:45:24.475Z,3.80
2017-11-24T12:47:51.914Z,3.70
2017-11-24T12:50:19.338Z,3.80
2017-11-24T12:52:47.462Z,4.20
2017-11-24T12:55:16.682Z,4.60
2017-11-24T12:57:44.164Z,4.83
2017-11-24T13:00:13.214Z,7.37
2017-11-24T13:02:41.083Z,4.33
2017-11-24T13:05:08.523Z,4.73
2017-11-24T13:07:36.057Z,4.23
2017-11-24T13:10:03.501Z,4.50
2017-11-24T13:12:31.313Z,5.10
2017-11-24T13:14:58.948Z,4.97
2017-11-24T13:17:26.328Z,4.60
2017-11-24T13:19:54.889Z,4.30
2017-11-24T13:22:22.322Z,4.80
2017-11-24T13:24:49.766Z,4.50
2017-11-24T13:27:17.634Z,5.50
2017-11-24T13:29:45.051Z,4.50
2017-11-24T13:32:12.474Z,5.17
2017-11-24T13:34:40.636Z,5.30
2017-11-24T13:37:08.166Z,5.43
2017-11-24T13:39:35.586Z,5.50
2017-11-24T13:42:03.427Z,4.73
2017-11-24T13:44:30.838Z,4.73
2017-11-24T13:46:58.365Z,4.27
2017-11-24T13:49:25.793Z,5.30
2017-11-24T13:51:53.272Z,5.13
2017-11-24T13:54:20.705Z,5.13
2017-11-24T13:56:48.133Z,5.73
2017-11-24T13:59:15.740Z,4.07
2017-11-24T14:01:43.463Z,4.70
2017-11-24T14:04:10.891Z,9.57
2017-11-24T14:06:38.598Z,4.50
2017-11-24T14:09:06.049Z,4.97
2017-11-24T14:11:33.476Z,4.50
2017-11-24T14:14:01.090Z,4.17
2017-11-24T14:16:28.513Z,5.37
2017-11-24T14:18:56.270Z,4.10
2017-11-24T14:21:23.702Z,6.13
2017-11-24T14:23:51.169Z,4.87
2017-11-24T14:26:18.620Z,4.20
2017-11-24T14:28:46.029Z,4.37
2017-11-24T14:31:14.039Z,5.00
2017-11-24T14:33:41.479Z,5.20
2017-11-24T14:36:11.139Z,4.43
2017-11-24T14:38:39.613Z,4.70
2017-11-24T14:41:07.053Z,4.63
2017-11-24T14:43:34.460Z,5.07
2017-11-24T14:46:01.933Z,4.50
2017-11-24T14:48:29.354Z,4.27
2017-11-24T14:50:56.800Z,4.70
2017-11-24T14:53:24.647Z,4.73
2017-11-24T14:55:52.056Z,4.90
2017-11-24T14:58:19.473Z,6.30
2017-11-24T15:00:47.246Z,5.00
2017-11-24T15:03:16.209Z,5.70
2017-11-24T15:05:43.625Z,4.93
2017-11-24T15:08:11.869Z,5.70
2017-11-24T15:10:39.329Z,5.07
2017-11-24T15:13:07.192Z,5.50
2017-11-24T15:15:34.732Z,5.47
2017-11-24T15:18:02.158Z,5.50
2017-11-24T15:20:29.965Z,5.00
2017-11-24T15:22:57.810Z,6.30
2017-11-24T15:25:25.233Z,5.47
2017-11-24T15:27:52.690Z,5.80
2017-11-24T15:30:20.260Z,4.80
2017-11-24T15:32:47.665Z,5.93
2017-11-24T15:35:15.091Z,5.80
2017-11-24T15:37:42.911Z,5.90
2017-11-24T15:40:10.337Z,7.00
2017-11-24T15:42:38.030Z,6.20
2017-11-24T15:45:05.496Z,5.80
2017-11-24T15:47:32.934Z,8.00
2017-11-24T15:50:00.366Z,5.90
2017-11-24T15:52:28.122Z,5.67
2017-11-24T15:54:55.956Z,6.50
2017-11-24T15:57:23.393Z,5.90
2017-11-24T15:59:50.871Z,6.27
2017-11-24T16:02:18.278Z,7.30
2017-11-24T16:04:45.722Z,6.53
2017-11-24T16:07:13.237Z,7.37
2017-11-24T16:09:41.068Z,7.10
2017-11-24T16:12:08.527Z,7.23
2017-11-24T16:14:35.967Z,7.53
2017-11-24T16:17:03.392Z,7.03
2017-11-24T16:19:31.268Z,7.20
2017-11-24T16:21:58.703Z,8.77
2017-11-24T16:24:26.523Z,7.90
2017-11-24T16:26:53.976Z,7.43
2017-11-24T16:29:21.412Z,7.10
2017-11-24T16:31:48.848Z,7.23
2017-11-24T16:34:16.630Z,9.57
2017-11-24T16:36:44.057Z,11.60
2017-11-24T16:39:11.482Z,8.87
2017-11-24T16:41:38.925Z,9.50
2017-11-24T16:44:06.456Z,8.30
2017-11-24T16:46:33.889Z,8.20
2017-11-24T16:49:01.351Z,9.00
2017-11-24T16:51:28.760Z,8.30
2017-11-24T16:53:56.590Z,8.27
2017-11-24T16:56:24.034Z,8.17
2017-11-24T16:58:51.464Z,7.70
2017-11-24T17:01:18.890Z,8.97
2017-11-24T17:03:46.776Z,8.87
2017-11-24T17:06:14.218Z,7.80
2017-11-24T17:08:42.043Z,8.00
2017-11-24T17:11:09.477Z,8.27
2017-11-24T17:13:37.760Z,7.70
2017-11-24T17:16:05.177Z,8.60
2017-11-24T17:18:32.605Z,7.83
2017-11-24T17:21:00.425Z,7.30
2017-11-24T17:23:27.859Z,8.73
2017-11-24T17:25:55.276Z,7.53
2017-11-24T17:28:22.710Z,7.50
2017-11-24T17:30:50.212Z,7.77
2017-11-24T17:33:18.030Z,8.50
2017-11-24T17:38:19.337Z,7.77
2017-11-24T17:40:47.001Z,7.63
2017-11-24T17:43:14.728Z,7.60
2017-11-24T17:45:42.942Z,7.67
2017-11-24T17:48:10.525Z,8.17
2017-11-24T17:50:37.933Z,8.37
2017-11-24T17:53:05.763Z,8.27
2017-11-24T17:55:33.190Z,8.40
2017-11-24T17:58:00.617Z,8.50
2017-11-24T18:00:28.316Z,7.17
2017-11-24T18:02:55.736Z,9.13
2017-11-24T18:05:23.161Z,8.77
2017-11-24T18:07:51.182Z,10.10
2017-11-24T18:10:18.619Z,9.37
2017-11-24T18:12:46.037Z,8.80
2017-11-24T18:15:13.463Z,9.00
2017-11-24T18:17:40.894Z,9.97
2017-11-24T18:20:08.621Z,10.00
2017-11-24T18:22:36.470Z,10.27
2017-11-24T18:25:03.907Z,10.57
2017-11-24T18:27:31.350Z,9.03
2017-11-24T18:29:58.997Z,9.27
2017-11-24T18:32:26.480Z,10.10
2017-11-24T18:34:54.826Z,10.20
2017-11-24T18:37:22.654Z,9.83
2017-11-24T18:39:50.088Z,10.50
2017-11-24T18:42:17.508Z,9.73
2017-11-24T18:44:44.955Z,10.90
2017-11-24T18:47:12.417Z,10.80
2017-11-24T18:49:39.833Z,9.87
2017-11-24T18:52:07.259Z,12.00
2017-11-24T18:54:34.690Z,9.80
2017-11-24T18:57:02.304Z,11.60
2017-11-24T18:59:29.736Z,10.30
2017-11-24T19:01:57.145Z,10.60
2017-11-24T19:04:24.565Z,9.50
2017-11-24T19:06:51.998Z,9.53
2017-11-24T19:09:19.443Z,10.47
2017-11-24T19:11:46.881Z,10.87
2017-11-24T19:14:14.317Z,11.43
2017-11-24T19:16:41.784Z,10.63
2017-11-24T19:19:09.217Z,11.80
2017-11-24T19:21:36.649Z,12.57
2017-11-24T19:24:04.599Z,12.47
2017-11-24T19:26:33.109Z,13.57
2017-11-24T19:29:00.889Z,16.07
2017-11-24T19:31:28.318Z,14.97
2017-11-24T19:33:56.017Z,11.47
2017-11-24T19:36:23.473Z,12.03
2017-11-24T19:38:50.926Z,12.97
2017-11-24T19:41:18.359Z,14.63
2017-11-24T19:43:45.827Z,15.20
2017-11-24T19:46:13.291Z,13.17
2017-11-24T19:48:40.724Z,14.60
2017-11-24T19:51:08.385Z,13.70
2017-11-24T19:53:35.827Z,15.13
2017-11-24T19:56:03.354Z,16.00
2017-11-24T19:58:31.184Z,18.00
2017-11-24T20:03:33.186Z,15.57
2017-11-24T20:06:01.003Z,18.90
2017-11-24T20:08:28.427Z,16.20
2017-11-24T20:10:55.870Z,17.10
2017-11-24T20:13:23.703Z,15.67
2017-11-24T20:15:51.159Z,15.57
2017-11-24T20:18:18.873Z,16.00
2017-11-24T20:20:46.658Z,15.50
2017-11-24T20:23:14.398Z,17.47
2017-11-24T20:25:41.830Z,18.53
2017-11-24T20:28:09.770Z,22.43
2017-11-24T20:30:37.213Z,21.63
2017-11-24T20:33:05.581Z,24.33
2017-11-24T20:35:33.368Z,21.77
2017-11-24T20:38:01.080Z,21.30
2017-11-24T20:40:28.610Z,19.57
2017-11-24T20:42:56.851Z,22.17
2017-11-24T20:45:24.315Z,21.43
2017-11-24T20:47:51.765Z,22.33
2017-11-24T20:50:19.528Z,25.33
2017-11-24T20:52:46.957Z,24.60
2017-11-24T20:55:14.384Z,23.73
2017-11-24T20:57:41.857Z,21.87
2017-11-24T21:00:09.276Z,23.50
2017-11-24T21:02:37.145Z,24.60
2017-11-24T21:05:05.279Z,23.00
2017-11-24T21:07:32.706Z,20.40
2017-11-24T21:10:00.141Z,19.70
2017-11-24T21:12:27.839Z,19.77
2017-11-24T21:14:55.263Z,20.23
2017-11-24T21:17:22.710Z,22.80
2017-11-24T21:19:50.399Z,23.40
2017-11-24T21:22:17.848Z,21.60
2017-11-24T21:24:45.274Z,24.10
2017-11-24T21:27:12.717Z,24.07
2017-11-24T21:29:40.141Z,24.20
2017-11-24T21:32:07.569Z,23.93
2017-11-24T21:34:34.994Z,23.60
2017-11-24T21:37:02.446Z,21.57
2017-11-24T21:39:29.879Z,22.63
2017-11-24T21:41:57.698Z,21.87
2017-11-24T21:44:25.152Z,22.13
2017-11-24T21:46:52.565Z,22.80
2017-11-24T21:49:19.997Z,21.67
2017-11-24T21:51:47.432Z,22.43
2017-11-24T21:54:14.885Z,22.33
2017-11-24T21:56:42.317Z,22.80
2017-11-24T21:59:09.743Z,22.40
2017-11-24T22:01:37.197Z,22.90
2017-11-24T22:04:04.646Z,23.47
2017-11-24T22:06:32.470Z,22.17
2017-11-24T22:08:59.929Z,24.37
2017-11-24T22:11:27.356Z,23.43
2017-11-24T22:13:55.017Z,24.70
2017-11-24T22:16:22.451Z,23.93
2017-11-24T22:18:49.882Z,24.53
2017-11-24T22:21:17.713Z,24.07
2017-11-24T22:23:45.140Z,25.23
2017-11-24T22:26:12.678Z,25.30
2017-11-24T22:28:40.096Z,25.77
2017-11-24T22:31:07.532Z,25.97
2017-11-24T22:33:35.789Z,27.17
2017-11-24T22:36:03.217Z,25.67
2017-11-24T22:38:30.645Z,24.63
2017-11-24T22:40:58.729Z,26.43
2017-11-24T22:43:26.162Z,26.43
2017-11-24T22:45:53.606Z,28.97
2017-11-24T22:48:21.038Z,28.80
2017-11-24T22:50:48.585Z,25.33
2017-11-24T22:53:16.015Z,27.07
2017-11-24T22:55:43.602Z,28.60
2017-11-24T22:58:11.927Z,28.90
2017-11-24T23:00:39.745Z,27.43
2017-11-24T23:03:07.170Z,28.90
2017-11-24T23:05:34.636Z,27.20
2017-11-24T23:08:02.062Z,29.70
2017-11-24T23:10:29.889Z,34.67
2017-11-24T23:12:57.313Z,30.37
2017-11-24T23:15:24.737Z,30.53
2017-11-24T23:17:52.582Z,29.00
2017-11-24T23:20:20.405Z,31.23
2017-11-24T23:22:47.839Z,29.70
2017-11-24T23:25:15.513Z,30.77
2017-11-24T23:27:42.945Z,29.60
2017-11-24T23:30:10.374Z,31.20
2017-11-24T23:32:38.229Z,32.43
2017-11-24T23:35:05.666Z,32.70
2017-11-24T23:37:33.092Z,30.67
2017-11-24T23:40:00.532Z,30.73
2017-11-24T23:42:27.958Z,33.47
2017-11-24T23:44:55.777Z,30.87
2017-11-24T23:47:23.382Z,32.30
2017-11-24T23:49:51.201Z,32.07
2017-11-24T23:52:18.629Z,33.00
2017-11-24T23:54:46.077Z,31.27
2017-11-24T23:57:13.502Z,32.30
2017-11-24T23:59:40.928Z,33.27
